sensor_id;sensor_type;location;lat;lon;timestamp;temperature;humidity
8820;DHT22;4446;50.876;4.736;2023-02-28T00:01:28;-2.70;99.90
8820;DHT22;4446;50.876;4.736;2023-02-28T00:03:55;-2.80;99.90
8820;DHT22;4446;50.876;4.736;2023-02-28T00:06:23;-2.80;99.90
8820;DHT22;4446;50.876;4.736;2023-02-28T00:08:50;-2.70;99.90
8820;DHT22;4446;50.876;4.736;2023-02-28T00:11:17;-2.70;99.90
8820;DHT22;4446;50.876;4.736;2023-02-28T00:13:46;-2.70;99.90
8820;DHT22;4446;50.876;4.736;2023-02-28T00:16:14;-2.70;99.90
8820;DHT22;4446;50.876;4.736;2023-02-28T00:18:42;-2.70;99.90
8820;DHT22;4446;50.876;4.736;2023-02-28T00:21:09;-2.70;99.90
8820;DHT22;4446;50.876;4.736;2023-02-28T00:23:37;-2.70;99.90
8820;DHT22;4446;50.876;4.736;2023-02-28T00:26:04;-2.70;99.90
8820;DHT22;4446;50.876;4.736;2023-02-28T00:28:31;-2.70;99.90
8820;DHT22;4446;50.876;4.736;2023-02-28T00:30:58;-2.70;99.90
8820;DHT22;4446;50.876;4.736;2023-02-28T00:33:25;-2.70;99.90
8820;DHT22;4446;50.876;4.736;2023-02-28T00:36:01;-2.70;99.90
8820;DHT22;4446;50.876;4.736;2023-02-28T00:38:28;-2.60;99.90
8820;DHT22;4446;50.876;4.736;2023-02-28T00:40:57;-2.60;99.90
8820;DHT22;4446;50.876;4.736;2023-02-28T00:43:30;-2.50;99.90
8820;DHT22;4446;50.876;4.736;2023-02-28T00:45:57;-2.50;99.90
8820;DHT22;4446;50.876;4.736;2023-02-28T00:48:24;-2.50;99.90
8820;DHT22;4446;50.876;4.736;2023-02-28T00:50:51;-2.50;99.90
8820;DHT22;4446;50.876;4.736;2023-02-28T00:53:18;-2.50;99.90
8820;DHT22;4446;50.876;4.736;2023-02-28T00:55:44;-2.50;99.90
8820;DHT22;4446;50.876;4.736;2023-02-28T00:58:13;-2.50;99.90
8820;DHT22;4446;50.876;4.736;2023-02-28T01:00:40;-2.50;99.90
8820;DHT22;4446;50.876;4.736;2023-02-28T01:03:06;-2.60;99.90
8820;DHT22;4446;50.876;4.736;2023-02-28T01:05:33;-2.50;99.90
8820;DHT22;4446;50.876;4.736;2023-02-28T01:08:00;-2.50;99.90
8820;DHT22;4446;50.876;4.736;2023-02-28T01:10:28;-2.60;99.90
8820;DHT22;4446;50.876;4.736;2023-02-28T01:12:56;-2.60;99.90
8820;DHT22;4446;50.876;4.736;2023-02-28T01:15:25;-2.60;99.90
8820;DHT22;4446;50.876;4.736;2023-02-28T01:17:52;-2.70;99.90
8820;DHT22;4446;50.876;4.736;2023-02-28T01:20:19;-2.70;99.90
8820;DHT22;4446;50.876;4.736;2023-02-28T01:22:46;-2.70;99.90
8820;DHT22;4446;50.876;4.736;2023-02-28T01:25:13;-2.70;99.90
8820;DHT22;4446;50.876;4.736;2023-02-28T01:27:40;-2.70;99.90
8820;DHT22;4446;50.876;4.736;2023-02-28T01:30:08;-2.80;99.90
8820;DHT22;4446;50.876;4.736;2023-02-28T01:32:36;-2.80;99.90
8820;DHT22;4446;50.876;4.736;2023-02-28T01:35:04;-2.80;99.90
8820;DHT22;4446;50.876;4.736;2023-02-28T01:37:31;-2.70;99.90
8820;DHT22;4446;50.876;4.736;2023-02-28T01:39:58;-2.70;99.90
8820;DHT22;4446;50.876;4.736;2023-02-28T01:42:25;-2.70;99.90
8820;DHT22;4446;50.876;4.736;2023-02-28T01:44:59;-2.70;99.90
8820;DHT22;4446;50.876;4.736;2023-02-28T01:47:30;-2.70;99.90
8820;DHT22;4446;50.876;4.736;2023-02-28T01:50:02;-2.80;99.90
8820;DHT22;4446;50.876;4.736;2023-02-28T01:52:30;-2.70;99.90
8820;DHT22;4446;50.876;4.736;2023-02-28T01:54:59;-2.70;99.90
8820;DHT22;4446;50.876;4.736;2023-02-28T01:57:30;-2.70;99.90
8820;DHT22;4446;50.876;4.736;2023-02-28T02:00:06;-2.60;99.90
8820;DHT22;4446;50.876;4.736;2023-02-28T02:02:36;-2.60;99.90
8820;DHT22;4446;50.876;4.736;2023-02-28T02:05:08;-2.60;99.90
8820;DHT22;4446;50.876;4.736;2023-02-28T02:07:38;-2.60;99.90
8820;DHT22;4446;50.876;4.736;2023-02-28T02:10:11;-2.60;99.90
8820;DHT22;4446;50.876;4.736;2023-02-28T02:13:05;-2.60;99.90
8820;DHT22;4446;50.876;4.736;2023-02-28T02:15:38;-2.60;99.90
8820;DHT22;4446;50.876;4.736;2023-02-28T02:18:12;-2.70;99.90
8820;DHT22;4446;50.876;4.736;2023-02-28T02:21:07;-2.70;99.90
8820;DHT22;4446;50.876;4.736;2023-02-28T02:23:58;-2.70;99.90
8820;DHT22;4446;50.876;4.736;2023-02-28T02:26:44;-2.80;99.90
8820;DHT22;4446;50.876;4.736;2023-02-28T02:29:33;-2.80;99.90
8820;DHT22;4446;50.876;4.736;2023-02-28T02:32:17;-2.80;99.90
8820;DHT22;4446;50.876;4.736;2023-02-28T02:34:55;-2.90;99.90
8820;DHT22;4446;50.876;4.736;2023-02-28T02:37:31;-3.00;99.90
8820;DHT22;4446;50.876;4.736;2023-02-28T02:40:05;-3.00;99.90
8820;DHT22;4446;50.876;4.736;2023-02-28T02:42:41;-3.20;99.90
8820;DHT22;4446;50.876;4.736;2023-02-28T02:45:12;-3.20;99.90
8820;DHT22;4446;50.876;4.736;2023-02-28T02:47:43;-3.30;99.90
8820;DHT22;4446;50.876;4.736;2023-02-28T02:50:15;-3.30;99.90
8820;DHT22;4446;50.876;4.736;2023-02-28T02:52:46;-3.40;99.90
8820;DHT22;4446;50.876;4.736;2023-02-28T02:55:17;-3.40;99.90
8820;DHT22;4446;50.876;4.736;2023-02-28T02:57:47;-3.40;99.90
8820;DHT22;4446;50.876;4.736;2023-02-28T03:00:18;-3.40;99.90
8820;DHT22;4446;50.876;4.736;2023-02-28T03:02:47;-3.40;99.90
8820;DHT22;4446;50.876;4.736;2023-02-28T03:05:19;-3.40;99.90
8820;DHT22;4446;50.876;4.736;2023-02-28T03:07:48;-3.40;99.90
8820;DHT22;4446;50.876;4.736;2023-02-28T03:10:42;-3.50;99.90
8820;DHT22;4446;50.876;4.736;2023-02-28T03:13:54;-3.50;99.90
8820;DHT22;4446;50.876;4.736;2023-02-28T03:16:36;-3.60;99.90
8820;DHT22;4446;50.876;4.736;2023-02-28T03:19:23;-3.70;99.90
8820;DHT22;4446;50.876;4.736;2023-02-28T03:22:00;-3.70;99.90
8820;DHT22;4446;50.876;4.736;2023-02-28T03:24:32;-3.80;99.90
8820;DHT22;4446;50.876;4.736;2023-02-28T03:27:07;-3.80;99.90
8820;DHT22;4446;50.876;4.736;2023-02-28T03:29:39;-3.80;99.90
8820;DHT22;4446;50.876;4.736;2023-02-28T03:32:13;-3.80;99.90
8820;DHT22;4446;50.876;4.736;2023-02-28T03:34:48;-3.70;99.90
8820;DHT22;4446;50.876;4.736;2023-02-28T03:37:20;-3.80;99.90
8820;DHT22;4446;50.876;4.736;2023-02-28T03:39:53;-3.80;99.90
8820;DHT22;4446;50.876;4.736;2023-02-28T03:42:24;-3.80;99.90
8820;DHT22;4446;50.876;4.736;2023-02-28T03:44:55;-3.90;99.90
8820;DHT22;4446;50.876;4.736;2023-02-28T03:47:27;-3.90;99.90
8820;DHT22;4446;50.876;4.736;2023-02-28T03:49:59;-3.90;99.90
8820;DHT22;4446;50.876;4.736;2023-02-28T03:52:31;-3.90;99.90
8820;DHT22;4446;50.876;4.736;2023-02-28T03:55:02;-3.90;99.90
8820;DHT22;4446;50.876;4.736;2023-02-28T03:57:35;-3.90;99.90
8820;DHT22;4446;50.876;4.736;2023-02-28T04:00:07;-3.90;99.90
8820;DHT22;4446;50.876;4.736;2023-02-28T04:02:35;-3.80;99.90
8820;DHT22;4446;50.876;4.736;2023-02-28T04:05:02;-3.80;99.90
8820;DHT22;4446;50.876;4.736;2023-02-28T04:07:31;-3.70;99.90
8820;DHT22;4446;50.876;4.736;2023-02-28T04:09:58;-3.70;99.90
8820;DHT22;4446;50.876;4.736;2023-02-28T04:12:25;-3.60;99.90
8820;DHT22;4446;50.876;4.736;2023-02-28T04:14:52;-3.50;99.90
8820;DHT22;4446;50.876;4.736;2023-02-28T04:17:19;-3.40;99.90
8820;DHT22;4446;50.876;4.736;2023-02-28T04:19:46;-3.40;99.90
8820;DHT22;4446;50.876;4.736;2023-02-28T04:22:13;-3.30;99.90
8820;DHT22;4446;50.876;4.736;2023-02-28T04:24:41;-3.30;99.90
8820;DHT22;4446;50.876;4.736;2023-02-28T04:27:09;-3.20;99.90
8820;DHT22;4446;50.876;4.736;2023-02-28T04:29:36;-3.20;99.90
8820;DHT22;4446;50.876;4.736;2023-02-28T04:32:03;-3.20;99.90
8820;DHT22;4446;50.876;4.736;2023-02-28T04:34:31;-3.10;99.90
8820;DHT22;4446;50.876;4.736;2023-02-28T04:36:59;-3.10;99.90
8820;DHT22;4446;50.876;4.736;2023-02-28T04:39:26;-3.10;99.90
8820;DHT22;4446;50.876;4.736;2023-02-28T04:41:54;-3.10;99.90
8820;DHT22;4446;50.876;4.736;2023-02-28T04:44:21;-3.10;99.90
8820;DHT22;4446;50.876;4.736;2023-02-28T04:46:49;-3.10;99.90
8820;DHT22;4446;50.876;4.736;2023-02-28T04:49:16;-3.00;99.90
8820;DHT22;4446;50.876;4.736;2023-02-28T04:51:43;-3.00;99.90
8820;DHT22;4446;50.876;4.736;2023-02-28T04:54:10;-3.00;99.90
8820;DHT22;4446;50.876;4.736;2023-02-28T04:56:36;-3.10;99.90
8820;DHT22;4446;50.876;4.736;2023-02-28T04:59:05;-3.00;99.90
8820;DHT22;4446;50.876;4.736;2023-02-28T05:01:33;-2.90;99.90
8820;DHT22;4446;50.876;4.736;2023-02-28T05:04:03;-2.90;99.90
8820;DHT22;4446;50.876;4.736;2023-02-28T05:06:32;-2.80;99.90
8820;DHT22;4446;50.876;4.736;2023-02-28T05:08:59;-2.90;99.90
8820;DHT22;4446;50.876;4.736;2023-02-28T05:11:28;-2.90;99.90
8820;DHT22;4446;50.876;4.736;2023-02-28T05:14:00;-2.90;99.90
8820;DHT22;4446;50.876;4.736;2023-02-28T05:16:28;-2.90;99.90
8820;DHT22;4446;50.876;4.736;2023-02-28T05:18:56;-2.80;99.90
8820;DHT22;4446;50.876;4.736;2023-02-28T05:21:26;-2.60;99.90
8820;DHT22;4446;50.876;4.736;2023-02-28T05:23:53;-2.50;99.90
8820;DHT22;4446;50.876;4.736;2023-02-28T05:26:21;-2.40;99.90
8820;DHT22;4446;50.876;4.736;2023-02-28T05:28:48;-2.40;99.90
8820;DHT22;4446;50.876;4.736;2023-02-28T05:31:15;-2.40;99.90
8820;DHT22;4446;50.876;4.736;2023-02-28T05:33:43;-2.30;99.90
8820;DHT22;4446;50.876;4.736;2023-02-28T05:36:10;-2.20;99.90
8820;DHT22;4446;50.876;4.736;2023-02-28T05:38:37;-2.20;99.90
8820;DHT22;4446;50.876;4.736;2023-02-28T05:41:07;-2.20;99.90
8820;DHT22;4446;50.876;4.736;2023-02-28T05:43:35;-2.20;99.90
8820;DHT22;4446;50.876;4.736;2023-02-28T05:46:04;-2.20;99.90
8820;DHT22;4446;50.876;4.736;2023-02-28T05:48:31;-2.20;99.90
8820;DHT22;4446;50.876;4.736;2023-02-28T05:50:59;-2.30;99.90
8820;DHT22;4446;50.876;4.736;2023-02-28T05:53:26;-2.30;99.90
8820;DHT22;4446;50.876;4.736;2023-02-28T05:55:53;-2.40;99.90
8820;DHT22;4446;50.876;4.736;2023-02-28T05:58:20;-2.40;99.90
8820;DHT22;4446;50.876;4.736;2023-02-28T06:00:47;-2.50;99.90
8820;DHT22;4446;50.876;4.736;2023-02-28T06:03:14;-2.60;99.90
8820;DHT22;4446;50.876;4.736;2023-02-28T06:05:41;-2.60;99.90
8820;DHT22;4446;50.876;4.736;2023-02-28T06:08:10;-2.70;99.90
8820;DHT22;4446;50.876;4.736;2023-02-28T06:10:37;-2.70;99.90
8820;DHT22;4446;50.876;4.736;2023-02-28T06:13:06;-2.80;99.90
8820;DHT22;4446;50.876;4.736;2023-02-28T06:15:33;-2.70;99.90
8820;DHT22;4446;50.876;4.736;2023-02-28T06:18:00;-2.80;99.90
8820;DHT22;4446;50.876;4.736;2023-02-28T06:20:27;-2.70;99.90
8820;DHT22;4446;50.876;4.736;2023-02-28T06:22:55;-2.70;99.90
8820;DHT22;4446;50.876;4.736;2023-02-28T06:25:25;-2.70;99.90
8820;DHT22;4446;50.876;4.736;2023-02-28T06:27:53;-2.60;99.90
8820;DHT22;4446;50.876;4.736;2023-02-28T06:30:20;-2.70;99.90
8820;DHT22;4446;50.876;4.736;2023-02-28T06:32:49;-2.80;99.90
8820;DHT22;4446;50.876;4.736;2023-02-28T06:35:16;-2.80;99.90
8820;DHT22;4446;50.876;4.736;2023-02-28T06:37:43;-2.80;99.90
8820;DHT22;4446;50.876;4.736;2023-02-28T06:40:11;-2.90;99.90
8820;DHT22;4446;50.876;4.736;2023-02-28T06:42:40;-2.90;99.90
8820;DHT22;4446;50.876;4.736;2023-02-28T06:45:08;-2.90;99.90
8820;DHT22;4446;50.876;4.736;2023-02-28T06:47:35;-2.90;99.90
8820;DHT22;4446;50.876;4.736;2023-02-28T06:50:03;-2.80;99.90
8820;DHT22;4446;50.876;4.736;2023-02-28T06:52:31;-2.80;99.90
8820;DHT22;4446;50.876;4.736;2023-02-28T06:55:02;-2.80;99.90
8820;DHT22;4446;50.876;4.736;2023-02-28T06:57:29;-2.80;99.90
8820;DHT22;4446;50.876;4.736;2023-02-28T06:59:59;-2.90;99.90
8820;DHT22;4446;50.876;4.736;2023-02-28T07:02:27;-2.90;99.90
8820;DHT22;4446;50.876;4.736;2023-02-28T07:04:54;-3.00;99.90
8820;DHT22;4446;50.876;4.736;2023-02-28T07:07:21;-3.00;99.90
8820;DHT22;4446;50.876;4.736;2023-02-28T07:09:47;-3.10;99.90
8820;DHT22;4446;50.876;4.736;2023-02-28T07:12:14;-3.10;99.90
8820;DHT22;4446;50.876;4.736;2023-02-28T07:14:42;-3.10;99.90
8820;DHT22;4446;50.876;4.736;2023-02-28T07:17:10;-3.00;99.90
8820;DHT22;4446;50.876;4.736;2023-02-28T07:19:38;-3.00;99.90
8820;DHT22;4446;50.876;4.736;2023-02-28T07:22:05;-3.00;99.90
8820;DHT22;4446;50.876;4.736;2023-02-28T07:24:32;-2.90;99.90
8820;DHT22;4446;50.876;4.736;2023-02-28T07:26:59;-2.90;99.90
8820;DHT22;4446;50.876;4.736;2023-02-28T07:29:26;-2.80;99.90
8820;DHT22;4446;50.876;4.736;2023-02-28T07:31:53;-2.80;99.90
8820;DHT22;4446;50.876;4.736;2023-02-28T07:34:22;-2.80;99.90
8820;DHT22;4446;50.876;4.736;2023-02-28T07:36:49;-2.70;99.90
8820;DHT22;4446;50.876;4.736;2023-02-28T07:39:19;-2.70;99.90
8820;DHT22;4446;50.876;4.736;2023-02-28T07:41:46;-2.70;99.90
8820;DHT22;4446;50.876;4.736;2023-02-28T07:44:13;-2.60;99.90
8820;DHT22;4446;50.876;4.736;2023-02-28T07:46:40;-2.50;99.90
8820;DHT22;4446;50.876;4.736;2023-02-28T07:49:07;-2.40;99.90
8820;DHT22;4446;50.876;4.736;2023-02-28T07:51:35;-2.20;99.90
8820;DHT22;4446;50.876;4.736;2023-02-28T07:54:02;-2.10;99.90
8820;DHT22;4446;50.876;4.736;2023-02-28T07:56:29;-1.90;99.90
8820;DHT22;4446;50.876;4.736;2023-02-28T07:58:56;-1.80;99.90
8820;DHT22;4446;50.876;4.736;2023-02-28T08:01:23;-1.70;99.90
8820;DHT22;4446;50.876;4.736;2023-02-28T08:03:50;-1.60;99.90
8820;DHT22;4446;50.876;4.736;2023-02-28T08:06:19;-1.50;99.90
8820;DHT22;4446;50.876;4.736;2023-02-28T08:08:48;-1.30;99.90
8820;DHT22;4446;50.876;4.736;2023-02-28T08:11:16;-1.20;99.90
8820;DHT22;4446;50.876;4.736;2023-02-28T08:13:44;-1.20;99.90
8820;DHT22;4446;50.876;4.736;2023-02-28T08:16:12;-1.10;99.90
8820;DHT22;4446;50.876;4.736;2023-02-28T08:18:42;-1.00;99.90
8820;DHT22;4446;50.876;4.736;2023-02-28T08:21:10;-0.90;99.90
8820;DHT22;4446;50.876;4.736;2023-02-28T08:23:37;-0.70;99.90
8820;DHT22;4446;50.876;4.736;2023-02-28T08:26:06;-0.60;99.90
8820;DHT22;4446;50.876;4.736;2023-02-28T08:28:33;-0.50;99.90
8820;DHT22;4446;50.876;4.736;2023-02-28T08:31:00;-0.30;99.90
8820;DHT22;4446;50.876;4.736;2023-02-28T08:33:27;-0.20;99.90
8820;DHT22;4446;50.876;4.736;2023-02-28T08:35:55;-0.10;99.90
8820;DHT22;4446;50.876;4.736;2023-02-28T08:38:22;0.00;99.90
8820;DHT22;4446;50.876;4.736;2023-02-28T08:40:49;0.10;99.90
8820;DHT22;4446;50.876;4.736;2023-02-28T08:43:18;0.20;99.90
8820;DHT22;4446;50.876;4.736;2023-02-28T08:45:45;0.30;99.90
8820;DHT22;4446;50.876;4.736;2023-02-28T08:48:12;0.40;99.90
8820;DHT22;4446;50.876;4.736;2023-02-28T08:50:39;0.50;99.90
8820;DHT22;4446;50.876;4.736;2023-02-28T08:53:06;0.60;99.90
8820;DHT22;4446;50.876;4.736;2023-02-28T08:55:32;0.60;99.90
8820;DHT22;4446;50.876;4.736;2023-02-28T08:57:59;0.80;99.90
8820;DHT22;4446;50.876;4.736;2023-02-28T09:00:28;0.90;99.90
8820;DHT22;4446;50.876;4.736;2023-02-28T09:02:55;1.00;99.90
8820;DHT22;4446;50.876;4.736;2023-02-28T09:05:22;1.10;99.90
8820;DHT22;4446;50.876;4.736;2023-02-28T09:07:49;1.20;99.90
8820;DHT22;4446;50.876;4.736;2023-02-28T09:10:16;1.20;99.90
8820;DHT22;4446;50.876;4.736;2023-02-28T09:12:43;1.20;99.90
8820;DHT22;4446;50.876;4.736;2023-02-28T09:15:12;1.30;99.90
8820;DHT22;4446;50.876;4.736;2023-02-28T09:17:40;1.40;99.90
8820;DHT22;4446;50.876;4.736;2023-02-28T09:20:09;1.50;99.90
8820;DHT22;4446;50.876;4.736;2023-02-28T09:22:36;1.60;99.90
8820;DHT22;4446;50.876;4.736;2023-02-28T09:25:03;1.70;99.90
8820;DHT22;4446;50.876;4.736;2023-02-28T09:27:30;1.80;99.90
8820;DHT22;4446;50.876;4.736;2023-02-28T09:29:57;1.90;99.90
8820;DHT22;4446;50.876;4.736;2023-02-28T09:32:24;1.90;99.90
8820;DHT22;4446;50.876;4.736;2023-02-28T09:34:52;2.00;99.90
8820;DHT22;4446;50.876;4.736;2023-02-28T09:37:19;2.10;99.90
8820;DHT22;4446;50.876;4.736;2023-02-28T09:39:46;2.20;99.90
8820;DHT22;4446;50.876;4.736;2023-02-28T09:42:21;2.20;99.90
8820;DHT22;4446;50.876;4.736;2023-02-28T09:44:53;2.30;99.90
8820;DHT22;4446;50.876;4.736;2023-02-28T09:47:28;2.40;99.90
8820;DHT22;4446;50.876;4.736;2023-02-28T09:49:59;2.40;99.90
8820;DHT22;4446;50.876;4.736;2023-02-28T09:52:30;2.50;99.90
8820;DHT22;4446;50.876;4.736;2023-02-28T09:55:04;2.50;99.90
8820;DHT22;4446;50.876;4.736;2023-02-28T09:57:40;2.60;99.90
8820;DHT22;4446;50.876;4.736;2023-02-28T10:00:13;2.60;99.90
8820;DHT22;4446;50.876;4.736;2023-02-28T10:02:52;2.70;99.90
8820;DHT22;4446;50.876;4.736;2023-02-28T10:05:27;2.70;99.90
8820;DHT22;4446;50.876;4.736;2023-02-28T10:08:01;2.80;99.90
8820;DHT22;4446;50.876;4.736;2023-02-28T10:10:35;2.90;99.90
8820;DHT22;4446;50.876;4.736;2023-02-28T10:13:06;2.80;99.90
8820;DHT22;4446;50.876;4.736;2023-02-28T10:15:37;2.90;99.90
8820;DHT22;4446;50.876;4.736;2023-02-28T10:18:08;2.90;99.90
8820;DHT22;4446;50.876;4.736;2023-02-28T10:20:39;3.00;99.90
8820;DHT22;4446;50.876;4.736;2023-02-28T10:23:12;3.00;99.90
8820;DHT22;4446;50.876;4.736;2023-02-28T10:25:44;3.00;99.90
8820;DHT22;4446;50.876;4.736;2023-02-28T10:28:15;3.00;99.90
8820;DHT22;4446;50.876;4.736;2023-02-28T10:30:46;3.10;99.90
8820;DHT22;4446;50.876;4.736;2023-02-28T10:33:23;3.20;99.90
8820;DHT22;4446;50.876;4.736;2023-02-28T10:35:52;3.20;99.90
8820;DHT22;4446;50.876;4.736;2023-02-28T10:38:23;3.30;99.90
8820;DHT22;4446;50.876;4.736;2023-02-28T10:40:50;3.40;99.90
8820;DHT22;4446;50.876;4.736;2023-02-28T10:43:22;3.40;99.90
8820;DHT22;4446;50.876;4.736;2023-02-28T10:46:01;3.50;99.90
8820;DHT22;4446;50.876;4.736;2023-02-28T10:48:37;3.50;99.90
8820;DHT22;4446;50.876;4.736;2023-02-28T10:51:07;3.50;99.90
8820;DHT22;4446;50.876;4.736;2023-02-28T10:53:47;3.60;99.90
8820;DHT22;4446;50.876;4.736;2023-02-28T10:56:17;3.60;99.90
8820;DHT22;4446;50.876;4.736;2023-02-28T10:58:51;3.70;99.90
8820;DHT22;4446;50.876;4.736;2023-02-28T11:01:20;3.70;99.90
8820;DHT22;4446;50.876;4.736;2023-02-28T11:03:48;3.60;99.90
8820;DHT22;4446;50.876;4.736;2023-02-28T11:06:20;3.60;99.90
8820;DHT22;4446;50.876;4.736;2023-02-28T11:08:51;3.60;99.90
8820;DHT22;4446;50.876;4.736;2023-02-28T11:11:20;3.70;99.90
8820;DHT22;4446;50.876;4.736;2023-02-28T11:13:52;3.90;99.90
8820;DHT22;4446;50.876;4.736;2023-02-28T11:16:20;4.00;99.90
8820;DHT22;4446;50.876;4.736;2023-02-28T11:18:50;4.20;99.90
8820;DHT22;4446;50.876;4.736;2023-02-28T11:21:26;4.20;99.90
8820;DHT22;4446;50.876;4.736;2023-02-28T11:24:00;4.20;99.90
8820;DHT22;4446;50.876;4.736;2023-02-28T11:26:43;4.30;99.90
8820;DHT22;4446;50.876;4.736;2023-02-28T11:29:17;4.30;99.90
8820;DHT22;4446;50.876;4.736;2023-02-28T11:32:02;4.40;99.90
8820;DHT22;4446;50.876;4.736;2023-02-28T11:34:29;4.40;99.90
8820;DHT22;4446;50.876;4.736;2023-02-28T11:36:59;4.50;99.90
8820;DHT22;4446;50.876;4.736;2023-02-28T11:39:31;4.40;99.90
8820;DHT22;4446;50.876;4.736;2023-02-28T11:42:14;4.40;99.90
8820;DHT22;4446;50.876;4.736;2023-02-28T11:44:56;4.40;99.90
8820;DHT22;4446;50.876;4.736;2023-02-28T11:47:29;4.40;99.90
8820;DHT22;4446;50.876;4.736;2023-02-28T11:50:12;4.30;99.90
8820;DHT22;4446;50.876;4.736;2023-02-28T11:52:48;4.30;99.90
8820;DHT22;4446;50.876;4.736;2023-02-28T11:55:23;4.50;99.90
8820;DHT22;4446;50.876;4.736;2023-02-28T12:01:01;4.60;99.90
8820;DHT22;4446;50.876;4.736;2023-02-28T12:03:37;4.60;99.90
8820;DHT22;4446;50.876;4.736;2023-02-28T12:06:16;4.70;99.90
8820;DHT22;4446;50.876;4.736;2023-02-28T12:09:02;4.70;99.90
8820;DHT22;4446;50.876;4.736;2023-02-28T12:11:40;4.80;99.90
8820;DHT22;4446;50.876;4.736;2023-02-28T12:17:34;5.10;99.90
8820;DHT22;4446;50.876;4.736;2023-02-28T12:20:12;5.00;99.90
8820;DHT22;4446;50.876;4.736;2023-02-28T12:22:48;5.00;99.90
8820;DHT22;4446;50.876;4.736;2023-02-28T12:28:16;5.10;99.90
8820;DHT22;4446;50.876;4.736;2023-02-28T12:30:50;5.00;99.90
8820;DHT22;4446;50.876;4.736;2023-02-28T12:33:24;4.90;99.90
8820;DHT22;4446;50.876;4.736;2023-02-28T12:35:55;5.00;99.90
8820;DHT22;4446;50.876;4.736;2023-02-28T12:38:25;5.00;99.90
8820;DHT22;4446;50.876;4.736;2023-02-28T12:40:58;5.10;99.90
8820;DHT22;4446;50.876;4.736;2023-02-28T12:43:31;5.10;99.90
8820;DHT22;4446;50.876;4.736;2023-02-28T12:46:01;5.10;99.90
8820;DHT22;4446;50.876;4.736;2023-02-28T12:48:32;5.20;99.90
8820;DHT22;4446;50.876;4.736;2023-02-28T12:51:06;5.20;99.90
8820;DHT22;4446;50.876;4.736;2023-02-28T12:53:48;5.10;99.90
8820;DHT22;4446;50.876;4.736;2023-02-28T12:56:23;5.10;99.90
8820;DHT22;4446;50.876;4.736;2023-02-28T12:58:58;5.20;99.90
8820;DHT22;4446;50.876;4.736;2023-02-28T13:01:48;5.20;99.90
8820;DHT22;4446;50.876;4.736;2023-02-28T13:04:44;5.30;99.90
8820;DHT22;4446;50.876;4.736;2023-02-28T13:07:48;5.30;99.90
8820;DHT22;4446;50.876;4.736;2023-02-28T13:10:19;5.20;99.90
8820;DHT22;4446;50.876;4.736;2023-02-28T13:12:52;5.20;99.90
8820;DHT22;4446;50.876;4.736;2023-02-28T13:15:23;5.20;99.90
8820;DHT22;4446;50.876;4.736;2023-02-28T13:17:52;5.30;99.90
8820;DHT22;4446;50.876;4.736;2023-02-28T13:20:21;5.30;99.90
8820;DHT22;4446;50.876;4.736;2023-02-28T13:22:51;5.40;99.90
8820;DHT22;4446;50.876;4.736;2023-02-28T13:25:52;5.40;99.90
8820;DHT22;4446;50.876;4.736;2023-02-28T13:34:41;5.50;99.90
8820;DHT22;4446;50.876;4.736;2023-02-28T13:37:35;5.50;99.90
8820;DHT22;4446;50.876;4.736;2023-02-28T13:40:28;5.50;99.90
8820;DHT22;4446;50.876;4.736;2023-02-28T13:42:56;5.50;99.90
8820;DHT22;4446;50.876;4.736;2023-02-28T13:45:26;5.40;99.90
8820;DHT22;4446;50.876;4.736;2023-02-28T13:47:56;5.40;99.90
8820;DHT22;4446;50.876;4.736;2023-02-28T13:50:30;5.40;99.90
8820;DHT22;4446;50.876;4.736;2023-02-28T13:55:55;5.40;99.90
8820;DHT22;4446;50.876;4.736;2023-02-28T13:58:37;5.50;99.90
8820;DHT22;4446;50.876;4.736;2023-02-28T14:01:17;5.40;99.90
8820;DHT22;4446;50.876;4.736;2023-02-28T14:04:02;5.50;99.90
8820;DHT22;4446;50.876;4.736;2023-02-28T14:06:33;5.40;99.90
8820;DHT22;4446;50.876;4.736;2023-02-28T14:09:03;5.40;99.90
8820;DHT22;4446;50.876;4.736;2023-02-28T14:11:34;5.40;99.90
8820;DHT22;4446;50.876;4.736;2023-02-28T14:14:03;5.40;99.90
8820;DHT22;4446;50.876;4.736;2023-02-28T14:16:38;5.30;99.90
8820;DHT22;4446;50.876;4.736;2023-02-28T14:19:12;5.60;99.90
8820;DHT22;4446;50.876;4.736;2023-02-28T14:21:52;5.80;99.90
8820;DHT22;4446;50.876;4.736;2023-02-28T14:24:39;5.80;99.90
8820;DHT22;4446;50.876;4.736;2023-02-28T14:30:37;5.50;99.90
8820;DHT22;4446;50.876;4.736;2023-02-28T14:33:18;5.50;99.90
8820;DHT22;4446;50.876;4.736;2023-02-28T14:36:01;5.30;99.90
8820;DHT22;4446;50.876;4.736;2023-02-28T14:38:33;5.30;99.90
8820;DHT22;4446;50.876;4.736;2023-02-28T14:41:11;5.30;99.90
8820;DHT22;4446;50.876;4.736;2023-02-28T14:43:48;5.20;99.90
8820;DHT22;4446;50.876;4.736;2023-02-28T14:46:17;5.20;99.90
8820;DHT22;4446;50.876;4.736;2023-02-28T14:48:45;5.20;99.90
8820;DHT22;4446;50.876;4.736;2023-02-28T14:51:18;5.10;99.90
8820;DHT22;4446;50.876;4.736;2023-02-28T14:53:50;5.10;99.90
8820;DHT22;4446;50.876;4.736;2023-02-28T14:56:22;5.10;99.90
8820;DHT22;4446;50.876;4.736;2023-02-28T14:58:54;5.10;99.90
8820;DHT22;4446;50.876;4.736;2023-02-28T15:01:22;5.10;99.90
8820;DHT22;4446;50.876;4.736;2023-02-28T15:03:58;5.20;99.90
8820;DHT22;4446;50.876;4.736;2023-02-28T15:06:28;5.20;99.90
8820;DHT22;4446;50.876;4.736;2023-02-28T15:09:10;5.20;99.90
8820;DHT22;4446;50.876;4.736;2023-02-28T15:11:37;5.20;99.90
8820;DHT22;4446;50.876;4.736;2023-02-28T15:14:05;5.20;99.90
8820;DHT22;4446;50.876;4.736;2023-02-28T15:16:36;5.20;99.90
8820;DHT22;4446;50.876;4.736;2023-02-28T15:19:06;5.20;99.90
8820;DHT22;4446;50.876;4.736;2023-02-28T15:21:38;5.20;99.90
8820;DHT22;4446;50.876;4.736;2023-02-28T15:24:10;5.20;99.90
8820;DHT22;4446;50.876;4.736;2023-02-28T15:26:40;5.20;99.90
8820;DHT22;4446;50.876;4.736;2023-02-28T15:29:12;5.30;99.90
8820;DHT22;4446;50.876;4.736;2023-02-28T15:31:44;5.20;99.90
8820;DHT22;4446;50.876;4.736;2023-02-28T15:34:18;5.20;99.90
8820;DHT22;4446;50.876;4.736;2023-02-28T15:36:48;5.20;99.90
8820;DHT22;4446;50.876;4.736;2023-02-28T15:39:20;5.20;99.90
8820;DHT22;4446;50.876;4.736;2023-02-28T15:41:48;5.20;99.90
8820;DHT22;4446;50.876;4.736;2023-02-28T15:44:17;5.20;99.90
8820;DHT22;4446;50.876;4.736;2023-02-28T15:46:54;5.20;99.90
8820;DHT22;4446;50.876;4.736;2023-02-28T15:49:22;5.20;99.90
8820;DHT22;4446;50.876;4.736;2023-02-28T15:51:52;5.20;99.90
8820;DHT22;4446;50.876;4.736;2023-02-28T15:54:22;5.20;99.90
8820;DHT22;4446;50.876;4.736;2023-02-28T15:56:54;5.20;99.90
8820;DHT22;4446;50.876;4.736;2023-02-28T15:59:24;5.20;99.90
8820;DHT22;4446;50.876;4.736;2023-02-28T16:02:13;5.20;99.90
8820;DHT22;4446;50.876;4.736;2023-02-28T16:04:59;5.20;99.90
8820;DHT22;4446;50.876;4.736;2023-02-28T16:07:28;5.20;99.90
8820;DHT22;4446;50.876;4.736;2023-02-28T16:09:55;5.20;99.90
8820;DHT22;4446;50.876;4.736;2023-02-28T16:12:27;5.50;99.90
8820;DHT22;4446;50.876;4.736;2023-02-28T16:14:55;5.90;99.90
8820;DHT22;4446;50.876;4.736;2023-02-28T16:17:25;6.20;99.90
8820;DHT22;4446;50.876;4.736;2023-02-28T16:19:53;6.50;99.90
8820;DHT22;4446;50.876;4.736;2023-02-28T16:22:20;6.60;99.90
8820;DHT22;4446;50.876;4.736;2023-02-28T16:24:49;6.70;99.90
8820;DHT22;4446;50.876;4.736;2023-02-28T16:27:18;6.90;99.90
8820;DHT22;4446;50.876;4.736;2023-02-28T16:29:47;6.80;99.90
8820;DHT22;4446;50.876;4.736;2023-02-28T16:32:15;6.70;99.90
8820;DHT22;4446;50.876;4.736;2023-02-28T16:34:43;6.70;99.90
8820;DHT22;4446;50.876;4.736;2023-02-28T16:37:12;6.60;99.90
8820;DHT22;4446;50.876;4.736;2023-02-28T16:39:40;6.40;99.90
8820;DHT22;4446;50.876;4.736;2023-02-28T16:42:14;6.20;99.90
8820;DHT22;4446;50.876;4.736;2023-02-28T16:44:42;6.00;99.90
8820;DHT22;4446;50.876;4.736;2023-02-28T16:47:10;5.90;99.90
8820;DHT22;4446;50.876;4.736;2023-02-28T16:49:37;5.70;99.90
8820;DHT22;4446;50.876;4.736;2023-02-28T16:52:05;5.50;99.90
8820;DHT22;4446;50.876;4.736;2023-02-28T16:54:32;5.30;99.90
8820;DHT22;4446;50.876;4.736;2023-02-28T16:56:59;5.00;99.90